Time;durP1;ratioP1;P1;durP2;ratioP2;P2;SDS_P1;SDS_P2;PMS_P1;PMS_P2;Temp;Humidity;BMP_temperature;BMP_pressure;BME280_temperature;BME280_humidity;BME280_pressure;Samples;Min_cycle;Max_cycle;Signal;HPM_P1;HPM_P2
2023/07/18 00:02:44;;;;;;;28.67;24.30;;;;;;;26.06;50.94;101216.13;20997295;28;20032;-77
2023/07/18 00:12:46;;;;;;;28.15;22.90;;;;;;;25.98;50.82;101218.81;20995991;28;20079;-81
2023/07/18 00:22:53;;;;;;;30.83;24.27;;;;;;;25.63;51.06;101165.06;20996259;28;20392;-82
2023/07/18 00:32:56;;;;;;;;;;;;;;;26.02;51.16;101259.13;20998783;28;20041;-81
2023/07/18 00:43:00;;;;;;;28.60;23.27;;;;;;;26.00;50.97;101270.66;20995288;28;20322;-80
2023/07/18 00:53:02;;;;;;;27.02;23.15;;;;;;;25.99;50.57;101269.00;20995214;28;20036;-79
2023/07/18 01:03:04;;;;;;;26.17;23.35;;;;;;;25.42;51.03;101191.75;21008105;28;20028;-81
2023/07/18 01:13:05;;;;;;;25.38;22.38;;;;;;;25.91;50.59;101268.88;21010760;28;20032;-81
2023/07/18 01:23:07;;;;;;;24.42;21.73;;;;;;;25.87;51.01;101273.44;21009954;28;20106;-80
2023/07/18 01:33:11;;;;;;;26.10;22.75;;;;;;;25.81;50.76;101284.72;21009993;28;20060;-83
2023/07/18 01:43:13;;;;;;;24.90;21.25;;;;;;;25.39;50.85;101242.81;20993889;28;20045;-81
2023/07/18 01:53:14;;;;;;;23.38;20.88;;;;;;;25.85;50.51;101319.44;21014987;28;20442;-81
2023/07/18 02:03:19;;;;;;;22.85;19.80;;;;;;;25.74;50.84;101315.09;21012277;28;20028;-81
2023/07/18 02:13:23;;;;;;;23.13;20.23;;;;;;;25.74;50.75;101322.66;21022665;28;20031;-80
2023/07/18 02:23:29;;;;;;;20.95;18.65;;;;;;;25.88;50.32;101340.41;21034926;28;20059;-80
2023/07/18 02:33:32;;;;;;;22.05;18.55;;;;;;;25.79;50.82;101314.19;21021930;28;20044;-81
2023/07/18 02:43:35;;;;;;;21.30;18.15;;;;;;;25.73;50.55;101305.00;21005364;28;20039;-81
2023/07/18 02:53:37;;;;;;;21.05;18.58;;;;;;;25.77;50.34;101331.34;21003795;28;20044;-81
2023/07/18 03:03:41;;;;;;;19.58;17.48;;;;;;;25.76;50.72;101329.69;21003075;28;20040;-81
2023/07/18 03:13:42;;;;;;;20.00;17.90;;;;;;;25.77;50.80;101333.31;20999524;28;20101;-81
2023/07/18 03:23:44;;;;;;;19.73;17.45;;;;;;;25.67;50.56;101325.88;20998107;28;20048;-80
2023/07/18 03:33:45;;;;;;;17.75;15.85;;;;;;;25.56;50.74;101315.94;20999208;28;20086;-79
2023/07/18 03:43:46;;;;;;;19.55;17.30;;;;;;;25.55;50.75;101329.13;21020898;28;20033;-80
2023/07/18 03:53:50;;;;;;;19.02;16.63;;;;;;;25.67;50.54;101356.69;21015285;28;20094;-82
2023/07/18 04:03:54;;;;;;;18.85;15.90;;;;;;;25.61;50.94;101335.47;20998151;28;20036;-80
2023/07/18 04:13:56;;;;;;;17.73;15.88;;;;;;;25.58;50.77;101344.50;20994797;28;20045;-82
2023/07/18 04:23:57;;;;;;;16.67;14.88;;;;;;;25.55;50.62;101354.34;20994216;28;20040;-82
2023/07/18 04:33:59;;;;;;;16.52;14.82;;;;;;;25.50;50.91;101339.56;20994922;28;20040;-82
2023/07/18 04:44:01;;;;;;;19.20;15.75;;;;;;;25.70;53.28;101353.25;20995953;28;20098;-79
2023/07/18 04:54:03;;;;;;;18.55;15.10;;;;;;;26.01;54.26;101334.00;20994706;28;20044;-80
2023/07/18 05:04:04;;;;;;;17.08;15.27;;;;;;;26.30;53.59;101327.38;20976369;28;20040;-81
2023/07/18 05:14:06;;;;;;;16.35;14.65;;;;;;;26.53;53.30;101334.81;20994564;28;20028;-80
2023/07/18 05:24:07;;;;;;;14.93;13.35;;;;;;;26.63;52.57;101302.06;20993003;28;20036;-81
2023/07/18 05:34:09;;;;;;;17.00;14.40;;;;;;;26.85;52.61;101319.03;20990448;28;20453;-81
2023/07/18 05:44:10;;;;;;;15.95;14.25;;;;;;;26.97;51.93;101324.09;20997565;28;20037;-85
2023/07/18 05:54:14;;;;;;;15.25;13.68;;;;;;;27.00;51.93;101334.72;21009448;28;20028;-82
2023/07/18 06:04:15;;;;;;;14.20;12.70;;;;;;;27.10;51.34;101326.94;21006609;28;20036;-82
2023/07/18 06:14:17;;;;;;;16.25;13.85;;;;;;;27.19;51.15;101321.41;21018205;28;20044;-82
2023/07/18 06:24:21;;;;;;;13.65;12.23;;;;;;;27.17;50.83;101275.94;21006181;28;20048;-81
2023/07/18 06:34:23;;;;;;;13.38;11.98;;;;;;;27.40;50.66;101295.63;21003682;28;20041;-81
2023/07/18 06:44:27;;;;;;;14.40;12.90;;;;;;;27.46;50.30;101278.34;21002931;28;20032;-82
2023/07/18 06:54:29;;;;;;;13.73;12.32;;;;;;;27.52;50.14;101265.81;21002412;28;20460;-83
2023/07/18 07:04:33;;;;;;;13.95;12.55;;;;;;;27.57;50.31;101256.44;21001758;28;20033;-81
2023/07/18 07:14:36;;;;;;;13.95;12.40;;;;;;;27.64;50.41;101256.00;21000775;28;20076;-82
2023/07/18 07:24:40;;;;;;;14.02;12.63;;;;;;;27.68;49.99;101252.25;21000463;28;20078;-80
2023/07/18 07:34:42;;;;;;;14.43;12.93;;;;;;;27.69;50.09;101244.63;20997721;28;20048;-79
2023/07/18 07:44:45;;;;;;;14.75;13.15;;;;;;;27.76;49.88;101226.16;20998342;28;20041;-82
2023/07/18 07:54:49;;;;;;;12.85;11.55;;;;;;;27.80;50.07;101232.00;20995561;28;20040;-79
2023/07/18 08:04:51;;;;;;;15.10;12.57;;;;;;;27.83;49.55;101229.38;20997111;28;20480;-81
2023/07/18 08:14:52;;;;;;;13.77;12.38;;;;;;;27.76;49.61;101212.13;21004057;28;20028;-80
2023/07/18 08:24:54;;;;;;;13.13;11.85;;;;;;;27.76;49.59;101209.28;21011748;28;20049;-83
2023/07/18 08:34:55;;;;;;;12.90;11.60;;;;;;;27.76;49.31;101198.06;20999419;28;20048;-82
2023/07/18 08:45:03;;;;;;;12.85;11.40;;;;;;;27.92;49.26;101214.53;20995215;28;20053;-83
2023/07/18 08:55:05;;;;;;;13.55;12.15;;;;;;;27.97;49.22;101228.47;20994755;28;20045;-82
2023/07/18 09:05:26;;;;;;;12.98;11.57;;;;;;;27.78;49.02;101204.19;20995417;28;20365;-82
2023/07/18 09:15:29;;;;;;;12.68;11.48;;;;;;;28.00;48.82;101247.50;20994946;28;20541;-81
2023/07/18 09:25:31;;;;;;;12.60;10.65;;;;;;;28.02;48.73;101246.03;21006231;28;20098;-81
2023/07/18 09:35:39;;;;;;;12.68;11.38;;;;;;;27.93;48.93;101235.88;21007447;28;20044;-81
2023/07/18 09:45:41;;;;;;;12.73;11.43;;;;;;;27.99;48.63;101238.22;21006312;28;20025;-80
2023/07/18 09:55:44;;;;;;;11.45;10.35;;;;;;;28.06;48.76;101251.84;21005843;28;20070;-81
2023/07/18 10:05:46;;;;;;;12.48;11.27;;;;;;;28.07;48.48;101247.88;21004035;28;20089;-79
2023/07/18 10:16:13;;;;;;;10.60;9.57;;;;;;;28.06;48.56;101258.28;21003859;28;20028;-80
2023/07/18 10:26:15;;;;;;;11.00;9.90;;;;;;;28.08;48.68;101250.34;20992402;28;20044;-82
2023/07/18 10:36:25;;;;;;;11.50;10.32;;;;;;;27.93;48.71;101233.06;21002117;28;20036;-79
2023/07/18 10:46:42;;;;;;;10.93;9.85;;;;;;;28.09;48.60;101265.28;21010531;28;20091;-81
2023/07/18 10:56:43;;;;;;;11.53;10.33;;;;;;;28.14;48.46;101270.75;21001206;28;20033;-81
2023/07/18 11:06:59;;;;;;;12.00;10.63;;;;;;;28.08;48.26;101260.78;21000888;28;20028;-82
2023/07/18 11:17:01;;;;;;;10.52;9.40;;;;;;;28.21;48.45;101275.91;20999993;28;20480;-79
2023/07/18 11:27:27;;;;;;;10.13;8.88;;;;;;;28.21;48.41;101275.91;20998392;28;20101;-79
2023/07/18 11:37:29;;;;;;;10.63;9.52;;;;;;;28.27;48.14;101281.09;20997528;28;20036;-80
2023/07/18 11:47:32;;;;;;;10.60;9.50;;;;;;;28.25;48.22;101300.28;20995101;28;20102;-80
2023/07/18 11:57:33;;;;;;;9.63;8.70;;;;;;;28.30;48.12;101307.75;20995353;28;20392;-80
2023/07/18 12:07:35;;;;;;;10.65;9.55;;;;;;;28.29;48.27;101318.19;20995138;28;20032;-80
2023/07/18 12:17:40;;;;;;;9.32;8.43;;;;;;;28.29;47.97;101329.44;20995059;28;20036;-81
2023/07/18 12:27:44;;;;;;;9.55;8.55;;;;;;;28.31;47.91;101315.84;20994260;28;20068;-78
2023/07/18 12:37:46;;;;;;;9.82;8.85;;;;;;;28.31;48.00;101315.84;20994189;28;20041;-79
2023/07/18 12:47:47;;;;;;;9.02;8.13;;;;;;;28.34;48.02;101320.88;20995824;28;20167;-82
2023/07/18 12:57:52;;;;;;;8.98;8.07;;;;;;;28.27;48.10;101305.56;21011576;28;20048;-80
2023/07/18 13:07:53;;;;;;;9.02;8.13;;;;;;;28.35;48.07;101316.91;21014768;28;20044;-81
2023/07/18 13:17:55;;;;;;;9.27;8.32;;;;;;;28.36;48.10;101326.19;21009916;28;20438;-80
2023/07/18 13:27:56;;;;;;;7.88;7.07;;;;;;;28.36;48.13;101324.22;21008077;28;20035;-79
2023/07/18 13:37:57;;;;;;;8.93;8.02;;;;;;;28.25;48.19;101308.72;21007097;28;20475;-81
2023/07/18 13:47:59;;;;;;;8.90;8.00;;;;;;;28.41;48.09;101333.66;21006306;28;20391;-80
2023/07/18 13:58:02;;;;;;;9.05;8.15;;;;;;;28.39;48.23;101327.53;21005742;28;20029;-79
2023/07/18 14:08:07;;;;;;;8.15;7.28;;;;;;;28.40;48.16;101346.06;21004618;28;20472;-79
2023/07/18 14:18:10;;;;;;;9.02;8.13;;;;;;;28.42;48.45;101335.34;21004881;28;20044;-81
2023/07/18 14:28:11;;;;;;;8.50;7.70;;;;;;;28.39;48.28;101322.72;21003570;28;20480;-80
2023/07/18 14:38:13;;;;;;;9.05;8.15;;;;;;;28.35;48.26;101319.72;20984716;28;20094;-78
2023/07/18 14:48:14;;;;;;;9.00;8.02;;;;;;;28.41;48.32;101325.22;21001716;28;20032;-80
2023/07/18 14:58:16;;;;;;;9.60;8.63;;;;;;;28.50;48.49;101343.84;20999888;28;20040;-79
2023/07/18 15:08:17;;;;;;;10.85;9.75;;;;;;;28.51;48.29;101324.94;21001855;28;20066;-80
2023/07/18 15:18:21;;;;;;;10.32;9.32;;;;;;;28.56;48.36;101310.72;21001052;28;20048;-79
2023/07/18 15:28:23;;;;;;;10.75;9.65;;;;;;;28.56;48.20;101320.00;21002711;28;20036;-80
2023/07/18 15:38:24;;;;;;;10.80;9.70;;;;;;;28.52;48.11;101304.09;20996573;28;20076;-78
2023/07/18 15:48:26;;;;;;;13.10;11.25;;;;;;;28.52;48.29;101284.38;20996290;28;20070;-79
2023/07/18 15:58:28;;;;;;;11.88;10.55;;;;;;;28.06;47.80;101291.22;20996701;28;20036;-80
2023/07/18 16:08:29;;;;;;;12.38;11.07;;;;;;;27.62;48.50;101292.84;20995432;28;20028;-78
2023/07/18 16:18:30;;;;;;;13.85;12.07;;;;;;;27.35;48.30;101283.41;20992417;28;20079;-79
2023/07/18 16:28:32;;;;;;;14.15;12.63;;;;;;;27.20;48.07;101291.31;20997552;28;20102;-79
2023/07/18 16:38:40;;;;;;;15.52;12.82;;;;;;;26.98;48.61;101262.00;20994293;28;20041;-79
2023/07/18 16:48:42;;;;;;;15.48;13.88;;;;;;;26.96;48.64;101269.09;20992664;28;20052;-78
2023/07/18 16:58:44;;;;;;;15.70;14.00;;;;;;;27.04;50.17;101268.34;20992875;28;20051;-77
2023/07/18 17:08:48;;;;;;;14.18;12.77;;;;;;;27.00;50.42;101253.28;20992234;28;20464;-78
2023/07/18 17:18:49;;;;;;;16.40;14.05;;;;;;;26.96;50.81;101255.88;20991373;28;20052;-78
2023/07/18 17:28:51;;;;;;;16.42;14.73;;;;;;;26.94;50.63;101249.75;20991189;28;20052;-78
2023/07/18 17:38:53;;;;;;;17.38;15.05;;;;;;;26.85;50.81;101213.16;20991958;28;20367;-79
2023/07/18 17:48:55;;;;;;;18.42;16.50;;;;;;;26.89;51.08;101223.75;21005713;28;20040;-78
2023/07/18 17:58:57;;;;;;;17.42;15.60;;;;;;;26.75;50.66;101201.31;21007760;28;20434;-78
2023/07/18 18:08:59;;;;;;;18.35;16.35;;;;;;;26.80;51.15;101193.63;21006393;28;20032;-78
2023/07/18 18:19:06;;;;;;;19.42;17.25;;;;;;;26.72;51.25;101169.09;21003838;28;20045;-78
2023/07/18 18:29:08;;;;;;;18.58;16.55;;;;;;;26.77;51.32;101183.00;21003366;28;20033;-78
2023/07/18 18:39:10;;;;;;;20.13;16.48;;;;;;;26.68;51.57;101156.81;21002831;28;20468;-79
2023/07/18 18:49:13;;;;;;;19.75;17.58;;;;;;;26.65;51.36;101156.63;21001353;28;20036;-77
2023/07/18 18:59:24;;;;;;;19.48;17.38;;;;;;;26.59;51.36;101153.94;21000170;28;20029;-79
2023/07/18 19:09:26;;;;;;;20.58;17.88;;;;;;;26.70;51.54;101160.13;21000537;28;20029;-79
2023/07/18 19:19:27;;;;;;;19.95;17.88;;;;;;;26.69;51.80;101166.91;21000722;28;20036;-79
2023/07/18 19:29:30;;;;;;;19.90;17.80;;;;;;;26.67;51.73;101159.97;20999204;28;20040;-78
2023/07/18 19:39:32;;;;;;;19.98;17.80;;;;;;;26.66;51.82;101142.25;20998289;28;20032;-78
2023/07/18 19:49:36;;;;;;;21.80;18.35;;;;;;;26.61;51.68;101128.34;21009459;28;20041;-79
2023/07/18 19:59:38;;;;;;;21.33;18.95;;;;;;;26.55;50.96;101138.88;21020780;28;20040;-79
2023/07/18 20:09:40;;;;;;;20.48;18.02;;;;;;;26.53;51.62;101127.13;20996196;28;20025;-78
2023/07/18 20:19:43;;;;;;;20.60;18.33;;;;;;;26.53;51.76;101137.53;20995854;28;20036;-78
2023/07/18 20:29:44;;;;;;;21.42;19.13;;;;;;;26.56;51.75;101137.72;20995538;28;20032;-80
2023/07/18 20:39:46;;;;;;;20.08;17.77;;;;;;;26.56;51.75;101128.47;20992903;28;20045;-80
2023/07/18 20:49:47;;;;;;;21.17;18.52;;;;;;;26.44;51.69;101105.75;20992864;28;20041;-80
2023/07/18 20:59:48;;;;;;;21.25;18.88;;;;;;;26.45;51.87;101115.81;20992515;28;20043;-79
2023/07/18 21:09:50;;;;;;;20.90;18.30;;;;;;;26.53;51.67;101140.34;20993184;28;20033;-79
2023/07/18 21:19:51;;;;;;;19.80;17.52;;;;;;;26.43;51.76;101121.72;21002817;28;20053;-79
2023/07/18 21:29:56;;;;;;;20.48;18.27;;;;;;;26.48;51.74;101141.28;20993767;28;20040;-80
2023/07/18 21:39:59;;;;;;;19.08;16.92;;;;;;;26.41;51.89;101128.78;21012691;28;20066;-79
2023/07/18 21:50:02;;;;;;;18.98;16.92;;;;;;;26.31;51.79;101125.06;21010895;28;20035;-79
2023/07/18 22:00:05;;;;;;;19.58;17.23;;;;;;;26.42;51.27;101164.09;21006552;28;20533;-79
2023/07/18 22:10:09;;;;;;;20.95;18.02;;;;;;;26.30;51.53;101140.22;20986906;28;20045;-79
2023/07/18 22:20:11;;;;;;;19.52;17.42;;;;;;;26.40;51.65;101152.38;21005292;28;20395;-79
2023/07/18 22:30:13;;;;;;;20.15;17.92;;;;;;;26.29;51.82;101146.97;21003494;28;20025;-80
2023/07/18 22:40:15;;;;;;;19.65;17.55;;;;;;;26.27;51.71;101154.88;21003960;28;20025;-79
2023/07/18 22:50:16;;;;;;;20.52;18.15;;;;;;;26.35;51.81;101170.97;21003643;28;20519;-79
2023/07/18 23:00:18;;;;;;;21.15;17.85;;;;;;;26.22;51.84;101159.75;21001009;28;20040;-79
2023/07/18 23:10:19;;;;;;;19.00;17.00;;;;;;;26.33;51.74;101184.47;21001118;28;20075;-80
2023/07/18 23:20:20;;;;;;;20.33;17.83;;;;;;;26.33;51.98;101190.09;21002092;28;20110;-79
2023/07/18 23:30:22;;;;;;;19.52;16.52;;;;;;;26.33;51.84;101186.44;21000804;28;20028;-79
2023/07/18 23:40:24;;;;;;;19.65;17.50;;;;;;;26.30;51.67;101201.94;20998211;28;20032;-80
2023/07/18 23:50:25;;;;;;;19.65;16.55;;;;;;;26.16;51.78;101177.81;20997949;28;20052;-81
